Time;durP1;ratioP1;P1;durP2;ratioP2;P2;SDS_P1;SDS_P2;PMS_P1;PMS_P2;Temp;Humidity;BMP_temperature;BMP_pressure;BME280_temperature;BME280_humidity;BME280_pressure;Samples;Min_cycle;Max_cycle;Signal;HPM_P1;HPM_P2
2022/06/03 00:01:19;;;;;;;18.20;10.27;;;;;;;;;;4914310;29;20021;-62
2022/06/03 00:04:06;;;;;;;16.73;10.00;;;;;;;;;;4914321;29;20028;-63
2022/06/03 00:06:35;;;;;;;16.58;10.27;;;;;;;;;;4912879;28;20369;-61
2022/06/03 00:09:13;;;;;;;16.60;9.88;;;;;;;;;;4913050;28;20112;-62
2022/06/03 00:11:45;;;;;;;16.23;10.52;;;;;;;;;;4914523;29;20074;-62
2022/06/03 00:14:11;;;;;;;17.00;10.57;;;;;;;;;;4914172;29;20024;-62
2022/06/03 00:16:56;;;;;;;24.52;10.98;;;;;;;;;;4914457;29;20028;-62
2022/06/03 00:19:31;;;;;;;16.20;10.20;;;;;;;;;;4914324;29;20024;-62
2022/06/03 00:22:02;;;;;;;20.08;11.13;;;;;;;;;;4914300;28;20074;-62
2022/06/03 00:24:39;;;;;;;16.35;9.70;;;;;;;;;;4914196;29;20028;-62
2022/06/03 00:27:08;;;;;;;16.70;10.35;;;;;;;;;;4914534;29;20030;-62
2022/06/03 00:29:34;;;;;;;16.50;9.88;;;;;;;;;;4913146;28;20035;-62
2022/06/03 00:32:09;;;;;;;15.95;9.50;;;;;;;;;;4914189;29;20485;-62
2022/06/03 00:34:35;;;;;;;16.25;10.77;;;;;;;;;;4914141;29;20453;-62
2022/06/03 00:37:15;;;;;;;18.13;11.18;;;;;;;;;;4913057;28;20032;-62
2022/06/03 00:39:46;;;;;;;18.15;11.13;;;;;;;;;;4914375;29;20388;-62
2022/06/03 00:42:31;;;;;;;17.80;10.40;;;;;;;;;;4929844;23;20044;-64
2022/06/03 00:45:08;;;;;;;15.77;9.50;;;;;;;;;;4936132;29;20039;-65
2022/06/03 00:47:51;;;;;;;17.17;10.38;;;;;;;;;;4953081;29;20097;-64
2022/06/03 00:50:25;;;;;;;17.90;10.98;;;;;;;;;;4953179;29;20023;-64
2022/06/03 00:53:10;;;;;;;17.02;10.73;;;;;;;;;;4952950;29;20476;-65
2022/06/03 00:55:44;;;;;;;17.20;10.38;;;;;;;;;;4952981;28;20028;-63
2022/06/03 00:58:13;;;;;;;16.90;10.10;;;;;;;;;;4952842;29;20030;-64
2022/06/03 01:00:38;;;;;;;;;;;;;;;;;;4953395;28;20031;-65
2022/06/03 01:03:04;;;;;;;16.60;10.27;;;;;;;;;;4952892;28;19906;-64
2022/06/03 01:05:49;;;;;;;16.70;10.23;;;;;;;;;;4953263;28;20030;-64
2022/06/03 01:08:21;;;;;;;17.88;11.02;;;;;;;;;;4952640;28;20098;-64
2022/06/03 01:10:53;;;;;;;19.27;10.80;;;;;;;;;;4952878;28;20046;-65
2022/06/03 01:13:19;;;;;;;17.17;10.43;;;;;;;;;;4952695;28;20101;-64
2022/06/03 01:15:45;;;;;;;17.35;11.00;;;;;;;;;;4952736;29;20028;-64
2022/06/03 01:18:30;;;;;;;18.02;10.90;;;;;;;;;;4952672;28;20020;-63
2022/06/03 01:20:56;;;;;;;16.52;10.55;;;;;;;;;;4952688;28;20024;-64
2022/06/03 01:23:43;;;;;;;16.98;10.60;;;;;;;;;;4952664;28;20463;-65
2022/06/03 01:26:09;;;;;;;16.88;10.85;;;;;;;;;;4952708;28;20070;-64
2022/06/03 01:28:38;;;;;;;19.17;11.15;;;;;;;;;;4952384;28;20054;-64
2022/06/03 01:31:03;;;;;;;18.02;10.65;;;;;;;;;;4952487;28;20034;-64
2022/06/03 01:33:32;;;;;;;17.23;10.23;;;;;;;;;;4935447;28;20042;-65
2022/06/03 01:36:21;;;;;;;17.60;11.00;;;;;;;;;;4952643;28;20023;-65
2022/06/03 01:38:57;;;;;;;17.77;11.43;;;;;;;;;;4952278;29;20038;-64
2022/06/03 01:42:02;;;;;;;19.45;11.30;;;;;;;;;;4935323;28;20027;-65
2022/06/03 01:44:31;;;;;;;25.25;17.05;;;;;;;;;;4936821;29;20035;-65
2022/06/03 01:47:13;;;;;;;20.17;13.48;;;;;;;;;;4952760;28;20031;-65
2022/06/03 01:49:54;;;;;;;20.52;14.13;;;;;;;;;;4952349;29;20138;-64
2022/06/03 01:52:29;;;;;;;18.80;12.10;;;;;;;;;;4952251;28;20059;-65
2022/06/03 01:55:01;;;;;;;18.00;12.13;;;;;;;;;;4952617;28;20030;-64
2022/06/03 01:57:28;;;;;;;17.75;11.02;;;;;;;;;;4951843;28;20411;-64
2022/06/03 02:00:13;;;;;;;17.50;11.82;;;;;;;;;;4935123;28;20114;-64
2022/06/03 02:02:57;;;;;;;17.90;11.75;;;;;;;;;;4935177;28;20123;-64
2022/06/03 02:05:35;;;;;;;19.10;11.65;;;;;;;;;;4952123;29;20387;-65
2022/06/03 02:08:07;;;;;;;18.13;11.25;;;;;;;;;;4951886;29;20062;-65
2022/06/03 02:10:51;;;;;;;17.10;11.13;;;;;;;;;;4951945;28;20511;-65
2022/06/03 02:13:41;;;;;;;17.50;11.05;;;;;;;;;;4934589;28;20035;-65
2022/06/03 02:16:26;;;;;;;17.38;11.20;;;;;;;;;;4934327;28;20035;-64
2022/06/03 02:18:52;;;;;;;17.30;10.88;;;;;;;;;;4951711;28;20030;-65
2022/06/03 02:21:18;;;;;;;17.73;11.25;;;;;;;;;;4951921;29;20023;-64
2022/06/03 02:24:07;;;;;;;18.48;11.52;;;;;;;;;;4934575;28;20023;-65
2022/06/03 02:26:39;;;;;;;18.35;11.25;;;;;;;;;;4951284;29;20035;-65
2022/06/03 02:32:27;;;;;;;17.70;10.55;;;;;;;;;;4951722;29;20454;-63
2022/06/03 02:35:11;;;;;;;17.70;11.32;;;;;;;;;;4934294;28;20023;-65
2022/06/03 02:37:37;;;;;;;17.10;10.77;;;;;;;;;;4951320;29;20039;-64
2022/06/03 02:40:03;;;;;;;21.38;13.18;;;;;;;;;;4951659;28;20387;-65
2022/06/03 02:42:29;;;;;;;17.77;11.25;;;;;;;;;;4951557;28;20027;-65
2022/06/03 02:45:12;;;;;;;17.85;11.20;;;;;;;;;;4934339;28;20498;-64
2022/06/03 02:47:45;;;;;;;16.73;10.32;;;;;;;;;;4951224;28;20499;-66
2022/06/03 02:50:23;;;;;;;17.13;10.48;;;;;;;;;;4934251;28;20118;-64
2022/06/03 02:53:08;;;;;;;17.83;11.10;;;;;;;;;;4951214;29;20076;-64
2022/06/03 02:55:43;;;;;;;17.52;11.48;;;;;;;;;;4951247;29;20059;-64
2022/06/03 02:58:18;;;;;;;24.35;12.70;;;;;;;;;;4951353;28;20457;-64
2022/06/03 03:00:56;;;;;;;18.27;11.75;;;;;;;;;;4951298;28;20027;-64
2022/06/03 03:03:41;;;;;;;18.08;11.20;;;;;;;;;;4934048;28;20032;-65
2022/06/03 03:06:10;;;;;;;17.60;11.13;;;;;;;;;;4951120;28;20035;-64
2022/06/03 03:08:39;;;;;;;18.00;11.52;;;;;;;;;;4951073;28;20406;-64
2022/06/03 03:11:18;;;;;;;17.70;11.65;;;;;;;;;;4950981;28;20023;-65
2022/06/03 03:14:03;;;;;;;17.00;11.55;;;;;;;;;;4950770;28;20035;-65
2022/06/03 03:16:44;;;;;;;19.13;11.70;;;;;;;;;;4950849;29;20029;-65
2022/06/03 03:19:13;;;;;;;20.15;11.20;;;;;;;;;;4950860;28;20027;-64
2022/06/03 03:21:55;;;;;;;19.23;11.52;;;;;;;;;;4950903;28;20058;-65
2022/06/03 03:24:30;;;;;;;18.48;11.48;;;;;;;;;;4951022;29;20105;-64
2022/06/03 03:26:59;;;;;;;19.00;11.20;;;;;;;;;;4950942;28;20058;-64
2022/06/03 03:29:37;;;;;;;17.55;11.05;;;;;;;;;;4950785;29;20027;-65
2022/06/03 03:32:09;;;;;;;20.35;11.70;;;;;;;;;;4950695;29;20027;-65
2022/06/03 03:34:38;;;;;;;18.02;11.05;;;;;;;;;;4933566;28;20032;-65
2022/06/03 03:37:23;;;;;;;18.00;11.65;;;;;;;;;;4950879;28;20556;-65
2022/06/03 03:39:52;;;;;;;18.95;11.70;;;;;;;;;;4933566;28;20383;-65
2022/06/03 03:42:40;;;;;;;18.85;11.15;;;;;;;;;;4950653;28;20111;-66
2022/06/03 03:45:22;;;;;;;18.67;12.00;;;;;;;;;;4950577;29;20103;-65
2022/06/03 03:48:17;;;;;;;19.45;11.35;;;;;;;;;;4950401;29;20047;-65
2022/06/03 03:50:43;;;;;;;17.20;10.77;;;;;;;;;;4950278;29;20127;-65
2022/06/03 03:53:29;;;;;;;16.77;10.85;;;;;;;;;;4950457;29;20098;-65
2022/06/03 03:56:07;;;;;;;18.45;11.40;;;;;;;;;;4950617;28;20483;-65
2022/06/03 03:58:39;;;;;;;18.27;11.60;;;;;;;;;;4950233;29;20387;-65
2022/06/03 04:01:05;;;;;;;17.98;12.05;;;;;;;;;;4950221;28;20023;-65
2022/06/03 04:03:46;;;;;;;19.42;11.88;;;;;;;;;;4950441;28;20029;-65
2022/06/03 04:06:24;;;;;;;18.58;11.60;;;;;;;;;;4951834;28;20097;-65
2022/06/03 04:09:02;;;;;;;17.63;11.23;;;;;;;;;;4953310;28;20110;-65
2022/06/03 04:11:38;;;;;;;17.98;11.00;;;;;;;;;;4936232;28;20551;-65
2022/06/03 04:14:07;;;;;;;17.65;12.18;;;;;;;;;;4953512;29;20019;-65
2022/06/03 04:16:42;;;;;;;18.95;11.38;;;;;;;;;;4953551;28;20027;-65
2022/06/03 04:19:14;;;;;;;18.38;12.18;;;;;;;;;;4953368;28;20031;-65
2022/06/03 04:21:49;;;;;;;17.25;11.40;;;;;;;;;;4953434;28;20043;-65
2022/06/03 04:24:34;;;;;;;18.20;11.60;;;;;;;;;;4953315;28;20035;-64
2022/06/03 04:27:08;;;;;;;18.50;11.93;;;;;;;;;;4952898;28;20023;-65
2022/06/03 04:29:53;;;;;;;17.55;11.13;;;;;;;;;;4935819;28;20034;-65
2022/06/03 04:32:22;;;;;;;16.80;11.35;;;;;;;;;;4953183;28;20028;-65
2022/06/03 04:34:48;;;;;;;18.70;11.73;;;;;;;;;;4935731;28;20546;-65
2022/06/03 04:37:23;;;;;;;18.45;11.35;;;;;;;;;;4952698;28;20034;-64
2022/06/03 04:40:08;;;;;;;19.88;12.32;;;;;;;;;;4952866;28;20479;-64
2022/06/03 04:42:52;;;;;;;17.23;11.32;;;;;;;;;;4952699;28;20487;-65
2022/06/03 04:45:49;;;;;;;18.77;12.18;;;;;;;;;;4935589;28;20057;-64
2022/06/03 04:48:33;;;;;;;17.75;11.40;;;;;;;;;;4935599;28;20508;-66
2022/06/03 04:51:18;;;;;;;18.60;11.05;;;;;;;;;;4952954;28;20030;-65
2022/06/03 04:54:11;;;;;;;17.55;11.05;;;;;;;;;;4952552;28;20028;-64
2022/06/03 04:56:55;;;;;;;17.30;10.70;;;;;;;;;;4952195;29;20051;-64
2022/06/03 04:59:39;;;;;;;18.05;11.20;;;;;;;;;;4952837;29;20031;-65
2022/06/03 05:02:05;;;;;;;19.30;11.40;;;;;;;;;;4952888;28;20028;-65
2022/06/03 05:04:47;;;;;;;18.92;11.48;;;;;;;;;;4953450;29;20027;-66
2022/06/03 05:07:39;;;;;;;16.75;11.20;;;;;;;;;;4952541;28;20583;-65
2022/06/03 05:10:20;;;;;;;17.08;11.05;;;;;;;;;;4952308;28;20165;-65
2022/06/03 05:12:59;;;;;;;18.58;11.15;;;;;;;;;;4952404;29;20061;-65
2022/06/03 05:15:43;;;;;;;17.80;10.65;;;;;;;;;;4935511;28;20034;-65
2022/06/03 05:18:20;;;;;;;19.13;11.48;;;;;;;;;;4951421;28;20372;-65
2022/06/03 05:20:49;;;;;;;23.27;11.45;;;;;;;;;;4935205;28;20028;-65
2022/06/03 05:23:33;;;;;;;18.50;10.70;;;;;;;;;;4934828;28;20023;-63
2022/06/03 05:26:15;;;;;;;16.33;10.65;;;;;;;;;;4934965;28;20031;-64
2022/06/03 05:28:49;;;;;;;16.23;10.55;;;;;;;;;;4951616;28;20097;-64
2022/06/03 05:31:18;;;;;;;17.02;10.82;;;;;;;;;;4951973;29;20460;-64
2022/06/03 05:33:56;;;;;;;17.67;10.23;;;;;;;;;;4951882;28;20050;-65
2022/06/03 05:36:40;;;;;;;17.85;11.13;;;;;;;;;;4951826;28;20077;-65
2022/06/03 05:39:15;;;;;;;18.30;11.63;;;;;;;;;;4951868;28;20407;-65
2022/06/03 05:44:54;;;;;;;16.95;10.32;;;;;;;;;;4951745;29;20054;-65
2022/06/03 05:47:38;;;;;;;17.30;10.52;;;;;;;;;;4951200;29;20050;-65
2022/06/03 05:50:18;;;;;;;18.10;11.00;;;;;;;;;;4951350;29;20554;-66
2022/06/03 05:52:44;;;;;;;20.48;12.43;;;;;;;;;;4951286;29;20379;-65
2022/06/03 05:55:35;;;;;;;17.38;11.05;;;;;;;;;;4951668;28;20027;-65
2022/06/03 05:58:04;;;;;;;17.95;10.65;;;;;;;;;;4951290;29;20034;-65
2022/06/03 06:00:33;;;;;;;17.08;10.85;;;;;;;;;;4951376;29;20433;-65
2022/06/03 06:03:08;;;;;;;18.30;11.52;;;;;;;;;;4951806;28;20035;-65
2022/06/03 06:05:42;;;;;;;18.67;11.23;;;;;;;;;;4951822;28;20050;-65
2022/06/03 06:08:11;;;;;;;17.65;11.02;;;;;;;;;;4934336;28;20491;-63
2022/06/03 06:10:48;;;;;;;17.23;10.90;;;;;;;;;;4951709;28;20027;-64
2022/06/03 06:13:43;;;;;;;18.33;10.98;;;;;;;;;;4951433;28;20427;-65
2022/06/03 06:16:15;;;;;;;17.27;11.20;;;;;;;;;;4951105;28;20039;-65
2022/06/03 06:18:41;;;;;;;17.00;10.98;;;;;;;;;;4951479;28;20024;-65
2022/06/03 06:21:20;;;;;;;18.27;11.43;;;;;;;;;;4951454;28;20082;-65
2022/06/03 06:23:51;;;;;;;16.90;11.00;;;;;;;;;;4951471;28;20057;-65
2022/06/03 06:26:36;;;;;;;18.13;12.40;;;;;;;;;;4951417;29;20030;-66
2022/06/03 06:29:02;;;;;;;17.23;10.88;;;;;;;;;;4950419;28;20065;-63
2022/06/03 06:31:34;;;;;;;17.10;11.55;;;;;;;;;;4933763;28;20050;-64
2022/06/03 06:34:03;;;;;;;17.98;10.95;;;;;;;;;;4950968;28;20387;-64
2022/06/03 06:36:29;;;;;;;18.73;11.48;;;;;;;;;;4950955;28;20538;-62
2022/06/03 06:39:01;;;;;;;16.58;10.82;;;;;;;;;;4951196;28;20027;-63
2022/06/03 06:41:53;;;;;;;16.60;10.73;;;;;;;;;;4933983;28;20032;-65
2022/06/03 06:44:34;;;;;;;16.67;11.13;;;;;;;;;;4982466;23;20062;-61
2022/06/03 06:47:11;;;;;;;17.80;10.65;;;;;;;;;;4969214;28;20479;-62
2022/06/03 06:49:41;;;;;;;16.90;11.43;;;;;;;;;;4951549;28;20061;-62
2022/06/03 06:52:10;;;;;;;16.73;11.20;;;;;;;;;;4968816;28;20109;-62
2022/06/03 06:54:48;;;;;;;16.52;10.75;;;;;;;;;;4969075;28;20102;-62
2022/06/03 06:57:14;;;;;;;;;;;;;;;;;;4969230;28;20026;-62
2022/06/03 06:59:47;;;;;;;17.42;11.15;;;;;;;;;;4969038;28;19906;-62
2022/06/03 07:02:12;;;;;;;20.38;11.35;;;;;;;;;;4951658;28;20030;-62
2022/06/03 07:04:42;;;;;;;18.17;10.98;;;;;;;;;;4969022;28;20041;-62
2022/06/03 07:07:37;;;;;;;18.10;11.60;;;;;;;;;;4951589;28;20161;-59
2022/06/03 07:10:08;;;;;;;18.17;12.15;;;;;;;;;;4969432;28;20110;-62
2022/06/03 07:12:43;;;;;;;16.80;10.82;;;;;;;;;;4969014;28;20035;-61
2022/06/03 07:15:11;;;;;;;18.10;11.57;;;;;;;;;;4951817;28;20066;-61
2022/06/03 07:20:34;;;;;;;16.98;10.63;;;;;;;;;;4969084;28;20037;-62
2022/06/03 07:23:07;;;;;;;18.23;12.13;;;;;;;;;;4968942;28;20051;-62
2022/06/03 07:25:33;;;;;;;18.73;12.80;;;;;;;;;;4968889;28;20027;-62
2022/06/03 07:27:59;;;;;;;17.40;11.73;;;;;;;;;;4969095;28;20041;-61
2022/06/03 07:30:34;;;;;;;17.92;11.23;;;;;;;;;;4968893;28;20059;-62
2022/06/03 07:33:10;;;;;;;16.52;10.80;;;;;;;;;;4968753;28;20027;-61
2022/06/03 07:35:42;;;;;;;17.00;11.43;;;;;;;;;;4968533;28;20058;-61
2022/06/03 07:38:23;;;;;;;16.45;11.65;;;;;;;;;;4968221;28;20071;-62
2022/06/03 07:40:57;;;;;;;17.25;11.32;;;;;;;;;;4969601;28;20050;-62
2022/06/03 07:43:28;;;;;;;16.77;11.52;;;;;;;;;;4971700;28;20185;-62
2022/06/03 07:46:06;;;;;;;17.80;11.95;;;;;;;;;;4951048;28;20417;-63
2022/06/03 07:48:34;;;;;;;16.55;11.27;;;;;;;;;;4963213;28;20034;-62
2022/06/03 07:51:10;;;;;;;16.13;11.18;;;;;;;;;;4961884;28;20046;-63
2022/06/03 07:53:36;;;;;;;18.17;11.57;;;;;;;;;;4962431;28;20027;-62
2022/06/03 07:56:02;;;;;;;18.50;11.50;;;;;;;;;;4952503;28;20622;-62
2022/06/03 07:58:30;;;;;;;17.58;10.77;;;;;;;;;;4952083;28;20024;-63
2022/06/03 08:00:56;;;;;;;18.45;11.35;;;;;;;;;;4952506;28;20134;-62
2022/06/03 08:03:27;;;;;;;16.42;10.93;;;;;;;;;;4952078;28;20146;-63
2022/06/03 08:05:58;;;;;;;16.98;11.30;;;;;;;;;;4952505;28;20444;-59
2022/06/03 08:11:33;;;;;;;17.30;10.80;;;;;;;;;;4952589;29;20512;-63
2022/06/03 08:14:01;;;;;;;15.55;10.52;;;;;;;;;;4952029;28;20047;-62
2022/06/03 08:16:35;;;;;;;20.58;11.30;;;;;;;;;;4952239;28;20118;-63
2022/06/03 08:19:03;;;;;;;19.35;11.25;;;;;;;;;;4934931;28;20023;-62
2022/06/03 08:21:32;;;;;;;16.98;11.18;;;;;;;;;;4952220;28;20023;-62
2022/06/03 08:23:59;;;;;;;17.08;11.52;;;;;;;;;;4952155;28;20023;-62
2022/06/03 08:26:27;;;;;;;15.80;10.75;;;;;;;;;;4952228;28;20131;-63
2022/06/03 08:29:07;;;;;;;17.08;11.68;;;;;;;;;;4951816;28;20019;-63
2022/06/03 08:31:33;;;;;;;16.08;10.52;;;;;;;;;;4952282;28;20070;-62
2022/06/03 08:34:00;;;;;;;15.43;11.07;;;;;;;;;;4934639;28;20023;-62
2022/06/03 08:36:28;;;;;;;16.83;11.02;;;;;;;;;;4934875;28;20598;-62
2022/06/03 08:39:04;;;;;;;17.40;11.23;;;;;;;;;;4951850;28;20051;-62
2022/06/03 08:41:30;;;;;;;15.52;10.90;;;;;;;;;;4934599;28;20108;-59
2022/06/03 08:44:05;;;;;;;15.73;11.10;;;;;;;;;;4951507;28;20487;-62
2022/06/03 08:46:43;;;;;;;18.45;10.70;;;;;;;;;;4934470;28;20118;-62
2022/06/03 08:49:12;;;;;;;16.77;11.07;;;;;;;;;;4951925;28;20069;-61
2022/06/03 08:51:47;;;;;;;15.63;10.50;;;;;;;;;;4952056;28;20043;-61
2022/06/03 08:54:32;;;;;;;15.95;10.55;;;;;;;;;;4951735;28;20028;-61
2022/06/03 08:57:03;;;;;;;15.88;10.43;;;;;;;;;;4951991;28;20031;-60
2022/06/03 08:59:36;;;;;;;15.52;11.25;;;;;;;;;;4934417;28;20035;-59
2022/06/03 09:02:06;;;;;;;16.83;10.65;;;;;;;;;;4612380;28;9999752;-61
2022/06/03 09:04:37;;;;;;;16.45;10.90;;;;;;;;;;4965001;28;20080;-61
2022/06/03 09:07:06;;;;;;;15.38;11.05;;;;;;;;;;4958739;28;20042;-59
2022/06/03 09:09:54;;;;;;;17.55;10.50;;;;;;;;;;4967583;28;20116;-58
2022/06/03 09:12:20;;;;;;;17.13;11.18;;;;;;;;;;4948607;28;20031;-58
2022/06/03 09:14:48;;;;;;;16.33;10.77;;;;;;;;;;4948411;28;20076;-56
2022/06/03 09:17:23;;;;;;;15.93;10.43;;;;;;;;;;4948545;28;20399;-59
2022/06/03 09:19:51;;;;;;;15.00;10.63;;;;;;;;;;4959144;28;20108;-59
2022/06/03 09:22:21;;;;;;;14.90;10.50;;;;;;;;;;4967255;28;20077;-59
2022/06/03 09:24:48;;;;;;;19.55;11.07;;;;;;;;;;4950057;28;20336;-59
2022/06/03 09:27:16;;;;;;;17.63;10.65;;;;;;;;;;4967223;28;20023;-58
2022/06/03 09:29:48;;;;;;;15.20;10.77;;;;;;;;;;4969111;28;20019;-60
2022/06/03 09:32:16;;;;;;;17.45;11.18;;;;;;;;;;4951861;28;20521;-57
2022/06/03 09:34:43;;;;;;;17.33;10.20;;;;;;;;;;4970101;28;20023;-60
2022/06/03 09:37:11;;;;;;;15.27;10.18;;;;;;;;;;4956972;28;20049;-58
2022/06/03 09:39:38;;;;;;;16.15;10.43;;;;;;;;;;4950905;28;20027;-60
2022/06/03 09:42:04;;;;;;;16.08;10.57;;;;;;;;;;4951147;28;20165;-58
2022/06/03 09:44:30;;;;;;;17.30;10.70;;;;;;;;;;4950678;28;20479;-59
2022/06/03 09:47:01;;;;;;;16.27;10.70;;;;;;;;;;4949912;28;20356;-58
2022/06/03 09:49:28;;;;;;;18.85;10.77;;;;;;;;;;4950382;28;20522;-57
2022/06/03 09:51:59;;;;;;;15.38;10.73;;;;;;;;;;4950747;28;20495;-60
2022/06/03 09:54:26;;;;;;;15.38;10.77;;;;;;;;;;4950569;28;20526;-60
2022/06/03 09:56:56;;;;;;;16.60;11.27;;;;;;;;;;4932689;28;20020;-58
2022/06/03 09:59:23;;;;;;;16.88;10.60;;;;;;;;;;4950441;28;20499;-59
2022/06/03 10:01:49;;;;;;;15.68;10.63;;;;;;;;;;4952798;28;20043;-60
2022/06/03 10:04:17;;;;;;;17.45;11.52;;;;;;;;;;4951570;28;20433;-57
2022/06/03 10:06:43;;;;;;;15.02;10.50;;;;;;;;;;4969914;28;20172;-60
2022/06/03 10:14:40;;;;;;;15.57;10.65;;;;;;;;;;4969877;28;20042;-59
2022/06/03 10:17:07;;;;;;;15.02;10.35;;;;;;;;;;4969294;28;20022;-59
2022/06/03 10:19:33;;;;;;;16.42;11.25;;;;;;;;;;4969385;28;20035;-58
2022/06/03 10:21:59;;;;;;;16.30;10.65;;;;;;;;;;4969671;28;20034;-59
2022/06/03 10:24:32;;;;;;;15.45;10.60;;;;;;;;;;4969074;28;20035;-59
2022/06/03 10:27:00;;;;;;;16.02;10.73;;;;;;;;;;4969525;28;20038;-59
2022/06/03 10:29:26;;;;;;;;;;;;;;;;;;4969276;28;20022;-58
2022/06/03 10:31:54;;;;;;;15.90;10.43;;;;;;;;;;4969003;28;19988;-61
2022/06/03 10:34:24;;;;;;;16.08;10.63;;;;;;;;;;4951568;28;20034;-58
2022/06/03 10:36:51;;;;;;;16.60;10.63;;;;;;;;;;4960186;28;20038;-59
2022/06/03 10:39:18;;;;;;;16.10;10.38;;;;;;;;;;4949626;29;20023;-59
2022/06/03 10:41:46;;;;;;;16.27;10.48;;;;;;;;;;4949829;29;20509;-58
2022/06/03 10:44:12;;;;;;;15.20;10.47;;;;;;;;;;4949604;28;20049;-59
2022/06/03 10:46:38;;;;;;;16.98;10.52;;;;;;;;;;4949937;28;20039;-60
2022/06/03 10:49:12;;;;;;;15.50;10.45;;;;;;;;;;4950555;28;20372;-56
2022/06/03 11:02:45;;;;;;;17.05;10.63;;;;;;;;;;4953974;28;20083;-58
2022/06/03 11:05:13;;;;;;;15.10;10.45;;;;;;;;;;4968694;28;20034;-61
2022/06/03 11:07:39;;;;;;;;;;;;;;;;;;4968581;28;20513;-60
2022/06/03 11:10:09;;;;;;;17.73;11.98;;;;;;;;;;4968557;28;19910;-58
2022/06/03 11:12:35;;;;;;;16.35;11.20;;;;;;;;;;4967892;28;20023;-61
2022/06/03 11:15:01;;;;;;;16.33;11.10;;;;;;;;;;4968388;28;20019;-60
2022/06/03 11:17:42;;;;;;;14.73;10.93;;;;;;;;;;4971855;28;20111;-60
2022/06/03 11:20:19;;;;;;;16.58;11.07;;;;;;;;;;4971471;28;20019;-58
2022/06/03 11:22:45;;;;;;;15.68;10.98;;;;;;;;;;4971506;28;20027;-59
2022/06/03 11:25:28;;;;;;;18.45;10.73;;;;;;;;;;4971957;28;20368;-59
2022/06/03 11:27:56;;;;;;;15.20;10.90;;;;;;;;;;4266284;28;9999925;-56
2022/06/03 11:30:27;;;;;;;15.73;11.23;;;;;;;;;;4950948;28;20046;-57
2022/06/03 11:32:56;;;;;;;15.70;11.32;;;;;;;;;;4950585;28;20404;-58
2022/06/03 11:35:26;;;;;;;16.10;11.88;;;;;;;;;;4950656;29;20023;-54
2022/06/03 11:37:52;;;;;;;16.98;11.90;;;;;;;;;;4951955;29;20019;-60
2022/06/03 11:40:23;;;;;;;15.73;11.95;;;;;;;;;;4952193;28;20038;-57
2022/06/03 11:43:08;;;;;;;16.25;11.40;;;;;;;;;;4952096;29;20034;-55
2022/06/03 11:45:56;;;;;;;16.95;11.50;;;;;;;;;;4951836;29;20116;-58
2022/06/03 11:48:30;;;;;;;19.00;11.63;;;;;;;;;;4951720;29;20038;-58
2022/06/03 11:50:57;;;;;;;16.33;11.10;;;;;;;;;;4952141;29;20069;-59
2022/06/03 11:53:25;;;;;;;17.00;11.03;;;;;;;;;;4952224;29;20089;-59
2022/06/03 11:55:52;;;;;;;14.90;11.20;;;;;;;;;;4950946;28;20027;-58
2022/06/03 11:58:24;;;;;;;16.73;11.73;;;;;;;;;;4952158;29;20050;-55
2022/06/03 12:00:58;;;;;;;16.98;11.70;;;;;;;;;;4956392;28;20027;-55
2022/06/03 12:03:24;;;;;;;15.95;11.65;;;;;;;;;;4960015;28;20092;-56
2022/06/03 12:05:56;;;;;;;15.30;11.57;;;;;;;;;;4960847;28;20066;-56
2022/06/03 12:08:34;;;;;;;16.38;11.70;;;;;;;;;;4961021;28;20055;-57
2022/06/03 12:11:07;;;;;;;15.30;12.00;;;;;;;;;;4962394;28;20022;-59
2022/06/03 12:13:33;;;;;;;16.70;11.93;;;;;;;;;;4962479;28;20117;-58
2022/06/03 12:16:05;;;;;;;15.23;11.90;;;;;;;;;;4961987;28;20019;-53
2022/06/03 12:18:35;;;;;;;17.13;12.10;;;;;;;;;;4959955;28;20086;-57
2022/06/03 12:21:01;;;;;;;15.52;11.43;;;;;;;;;;4960623;28;20042;-59
2022/06/03 12:23:26;;;;;;;15.55;11.60;;;;;;;;;;4951944;28;20070;-58
2022/06/03 12:25:53;;;;;;;15.27;11.55;;;;;;;;;;4959578;28;20023;-60
2022/06/03 12:28:19;;;;;;;15.60;11.90;;;;;;;;;;4963799;28;20073;-52
2022/06/03 12:30:45;;;;;;;16.15;11.70;;;;;;;;;;4970554;28;20023;-58
2022/06/03 12:33:23;;;;;;;14.93;11.65;;;;;;;;;;4970190;28;20396;-60
2022/06/03 12:35:49;;;;;;;15.50;11.88;;;;;;;;;;4970360;28;20026;-61
2022/06/03 12:38:23;;;;;;;16.08;12.20;;;;;;;;;;4970531;28;20046;-60
2022/06/03 12:40:51;;;;;;;16.17;11.68;;;;;;;;;;4970917;28;20027;-58
2022/06/03 12:46:04;;;;;;;15.80;11.40;;;;;;;;;;4912747;28;20490;-59
2022/06/03 12:48:30;;;;;;;;;;;;;;;;;;4914129;29;20036;-61
2022/06/03 12:51:14;;;;;;;15.88;11.57;;;;;;;;;;4914446;28;19908;-61
2022/06/03 12:53:41;;;;;;;16.45;11.85;;;;;;;;;;4912321;29;20052;-61
2022/06/03 12:56:13;;;;;;;17.17;11.65;;;;;;;;;;4903600;28;20029;-59
2022/06/03 12:58:39;;;;;;;15.30;11.77;;;;;;;;;;4904328;28;20365;-59
2022/06/03 13:01:06;;;;;;;15.75;11.50;;;;;;;;;;4905170;28;20039;-61
2022/06/03 13:03:32;;;;;;;15.77;10.93;;;;;;;;;;4905690;29;20062;-60
2022/06/03 13:05:59;;;;;;;16.02;11.35;;;;;;;;;;4904214;28;20025;-60
2022/06/03 13:08:28;;;;;;;15.80;11.30;;;;;;;;;;4903616;29;20051;-62
2022/06/03 13:10:54;;;;;;;17.48;12.00;;;;;;;;;;4905000;29;20500;-60
2022/06/03 13:13:23;;;;;;;16.30;12.00;;;;;;;;;;4969271;28;20052;-60
2022/06/03 13:15:50;;;;;;;17.45;11.60;;;;;;;;;;4968443;28;20020;-59
2022/06/03 13:18:33;;;;;;;17.17;11.70;;;;;;;;;;4569439;28;10000503;-63
2022/06/03 13:21:02;;;;;;;17.73;11.68;;;;;;;;;;4902895;28;20020;-62
2022/06/03 13:23:34;;;;;;;15.80;12.20;;;;;;;;;;4900618;28;20039;-62
2022/06/03 13:26:29;;;;;;;18.33;11.40;;;;;;;;;;4964900;28;20031;-62
2022/06/03 13:28:55;;;;;;;15.40;11.30;;;;;;;;;;4924503;28;20028;-62
2022/06/03 13:31:21;;;;;;;16.67;11.68;;;;;;;;;;4903240;29;20028;-62
2022/06/03 13:34:00;;;;;;;16.95;12.27;;;;;;;;;;4900402;29;20032;-60
2022/06/03 13:36:30;;;;;;;16.92;12.05;;;;;;;;;;4901249;29;20586;-62
2022/06/03 13:38:57;;;;;;;16.25;12.13;;;;;;;;;;4901183;28;20032;-61
2022/06/03 13:44:11;;;;;;;17.65;12.35;;;;;;;;;;4900713;28;20158;-61
2022/06/03 13:46:37;;;;;;;;;;;;;;;;;;4903677;28;20396;-61
2022/06/03 13:49:08;;;;;;;15.52;12.30;;;;;;;;;;4980932;28;20001;-62
2022/06/03 13:51:34;;;;;;;17.13;11.95;;;;;;;;;;4900217;29;20111;-58
2022/06/03 13:54:02;;;;;;;15.98;11.60;;;;;;;;;;4894041;28;20104;-61
2022/06/03 13:56:30;;;;;;;15.68;11.40;;;;;;;;;;4894622;28;20029;-62
2022/06/03 13:58:56;;;;;;;17.92;14.73;;;;;;;;;;4894607;28;20100;-62
2022/06/03 14:01:26;;;;;;;18.73;12.15;;;;;;;;;;4895118;28;20064;-62
2022/06/03 14:04:13;;;;;;;15.73;12.52;;;;;;;;;;4570048;28;10000042;-62
2022/06/03 14:06:41;;;;;;;15.55;11.52;;;;;;;;;;4914583;29;20044;-61
2022/06/03 14:09:07;;;;;;;;;;;;;;;;;;4978183;28;20040;-61
2022/06/03 14:11:39;;;;;;;16.27;12.23;;;;;;;;;;4913134;29;19914;-62
2022/06/03 14:14:05;;;;;;;15.30;11.90;;;;;;;;;;4978430;28;20032;-62
2022/06/03 14:16:34;;;;;;;16.65;12.93;;;;;;;;;;4913588;29;20025;-62
2022/06/03 14:19:09;;;;;;;16.30;12.70;;;;;;;;;;4956318;28;20027;-59
2022/06/03 14:21:38;;;;;;;16.65;12.00;;;;;;;;;;4975758;28;20037;-62
2022/06/03 14:24:05;;;;;;;16.08;12.60;;;;;;;;;;4663410;28;10000553;-63
2022/06/03 14:26:40;;;;;;;16.33;12.40;;;;;;;;;;4910360;29;20609;-63
2022/06/03 14:29:15;;;;;;;15.85;12.00;;;;;;;;;;4909312;29;20028;-62
2022/06/03 14:31:50;;;;;;;15.30;11.90;;;;;;;;;;4910449;29;20024;-63
2022/06/03 14:34:28;;;;;;;17.45;12.68;;;;;;;;;;4910263;29;20031;-62
2022/06/03 14:36:56;;;;;;;16.10;12.40;;;;;;;;;;4910825;29;20047;-63
2022/06/03 14:39:26;;;;;;;17.95;12.15;;;;;;;;;;4975267;28;20114;-62
2022/06/03 14:41:54;;;;;;;16.13;12.70;;;;;;;;;;4910188;29;20489;-63
2022/06/03 14:44:21;;;;;;;15.73;12.70;;;;;;;;;;4910016;29;20151;-63
2022/06/03 14:46:47;;;;;;;18.70;14.18;;;;;;;;;;4910199;29;20039;-62
2022/06/03 14:49:17;;;;;;;18.27;12.88;;;;;;;;;;4974565;28;20032;-63
2022/06/03 14:51:48;;;;;;;15.55;12.57;;;;;;;;;;4910318;29;20032;-62
2022/06/03 14:54:16;;;;;;;16.23;13.00;;;;;;;;;;4891125;29;20499;-62
2022/06/03 14:56:45;;;;;;;16.70;12.90;;;;;;;;;;4956180;28;20396;-62
2022/06/03 14:59:18;;;;;;;16.13;12.88;;;;;;;;;;4891244;29;20039;-62
2022/06/03 15:01:49;;;;;;;18.52;13.15;;;;;;;;;;4891391;29;20029;-63
2022/06/03 15:04:40;;;;;;;16.33;13.27;;;;;;;;;;4891460;29;20044;-62
2022/06/03 15:07:08;;;;;;;15.45;12.40;;;;;;;;;;4891233;29;20072;-63
2022/06/03 15:09:42;;;;;;;17.20;13.10;;;;;;;;;;4955410;28;20166;-62
2022/06/03 15:12:22;;;;;;;15.60;12.90;;;;;;;;;;4893504;29;20054;-63
2022/06/03 15:14:49;;;;;;;16.45;13.02;;;;;;;;;;4896469;29;20067;-63
2022/06/03 15:17:16;;;;;;;17.15;12.68;;;;;;;;;;4956492;28;20044;-62
2022/06/03 15:19:42;;;;;;;15.27;12.32;;;;;;;;;;4916508;28;20041;-62
2022/06/03 15:22:16;;;;;;;16.45;12.10;;;;;;;;;;4989917;28;20046;-62
2022/06/03 15:24:47;;;;;;;16.75;12.80;;;;;;;;;;4970575;28;20655;-62
2022/06/03 15:27:13;;;;;;;16.25;12.43;;;;;;;;;;4909952;29;20028;-60